Airport View

Enter AWOS ICAO identifier for current METAR.

ex. KFNL

KFHU 212258Z AUTO 25008G16KT 10SM FEW075 29/09 A3002 RMK AO2 SLP094 T02930088

22 Sep 2019 00:04

Frequency: 119.675

Phone: 520-459-7316

Other Area AWOS: KOLS - KDUG - KTUS - KDMA

TAF KFHU 210203Z 2102/2208 VRB06KT 9999 SCT030 QNH3000INS BECMG 2115/2116 21012G18KT 9999 SCT050 QNH3009INS BECMG 2121/2122 22015G25KT 9999 VCTS BKN045CB OVC065 520009 QNH3004INS TEMPO 2201/2203 9000 -TSRA BKN030CB OVC045 BECMG 2202/2203 VRB06KT 9999 NSW BKN050 QNH3010INS TX29/2119Z TN14/2113Z LAST NO AMDS AFT 2106 NEXT 2302